Latest Weather Observations for Jandakot

IDW60801

Issued at 3:33 pm WST Saturday 1 August 2015 (issued every 30 minutes, with the page automatically refreshed every 10 minutes)

About weather observations | Map of weather stations | Latest weather observations for WA | Other Formats
Station Details ID: 009172 Name: JANDAKOT AERO Lat: -32.10 Lon: 115.88 Height: 30.0 m
Data from the previous 72 hours. | See also: Recent months at Jandakot
Date/Time
WST
Temp
°C
App
Temp
°C
Dew
Point
Rel
Hum
%
Delta-T
°C
Wind Press
QNH
hPa
Press
MSL
hPa
Rain
since 9 am
mm
Dir
 
Spd
km/h
Gust
km/h
Spd
kts
Gust
kts
01/03:30pm 16.2 11.6 5.5 49 5.1 ESE 19 26 10 14 1025.4 1025.4 0.0
01/03:00pm 16.8 12.1 5.3 46 5.5 ESE 19 26 10 14 1024.9 1024.9 0.0
01/02:30pm 16.2 11.0 5.5 49 5.1 SE 22 32 12 17 1024.8 1024.8 0.0
01/02:00pm 16.5 11.3 5.4 48 5.3 SE 22 32 12 17 1024.6 1024.6 0.0
01/01:30pm 16.2 10.6 5.5 49 5.1 SSE 24 33 13 18 1024.5 1024.5 0.0
01/01:00pm 16.7 11.9 5.4 47 5.4 ESE 20 32 11 17 1024.5 1024.5 0.0
01/12:30pm 16.7 11.1 5.4 47 5.4 SE 24 33 13 18 1024.7 1024.7 0.0
01/12:00pm 17.0 11.1 5.6 47 5.5 ESE 26 39 14 21 1024.8 1024.8 0.0
01/11:30am 16.3 9.6 5.4 48 5.2 SE 30 39 16 21 1024.8 1024.8 0.0
01/11:00am 15.9 10.4 5.9 51 4.8 SE 24 33 13 18 1024.6 1024.6 0.0
01/10:30am 15.3 8.7 5.9 53 4.5 SE 30 39 16 21 1024.6 1024.6 0.0
01/10:00am 14.6 8.4 6.3 57 4.0 SE 28 39 15 21 1024.5 1024.5 0.0
01/09:30am 14.0 8.6 6.2 59 3.7 SE 24 32 13 17 1024.3 1024.3 0.0
01/09:00am 13.4 7.3 6.5 63 3.3 SE 28 39 15 21 1023.8 1023.8 1.6
01/08:30am 12.8 7.2 7.2 69 2.7 SE 26 35 14 19 1023.2 1023.2 1.6
01/08:00am 12.3 7.1 7.3 71 2.4 SSE 24 35 13 19 1022.5 1022.5 1.6
01/07:30am 11.7 8.6 7.3 74 2.1 S 13 19 7 10 1021.8 1021.8 1.6
01/07:00am 11.0 8.0 7.5 79 1.7 SSE 13 15 7 8 1021.0 1021.0 1.6
01/06:30am 11.2 7.3 7.2 76 1.9 SSE 17 26 9 14 1020.3 1020.3 1.6
01/06:00am 11.3 8.2 7.1 75 2.0 S 13 22 7 12 1020.0 1020.0 1.6
01/05:30am 12.0 7.1 6.7 70 2.5 SE 22 32 12 17 1019.5 1019.5 1.6
01/05:00am 11.9 7.6 6.9 71 2.4 SE 19 32 10 17 1018.9 1018.9 1.6
01/04:30am 12.4 7.5 6.7 68 2.7 SE 22 32 12 17 1018.6 1018.6 1.6
01/04:00am 12.4 7.8 6.7 68 2.7 SSE 20 41 11 22 1018.2 1018.2 1.6
01/03:30am 12.4 6.3 6.7 68 2.7 SE 28 41 15 22 1017.7 1017.7 1.6
01/03:02am 12.5 6.2 7.3 70 2.5 SE 30 48 16 26 1017.7 1017.7 1.6
01/03:00am 12.6 5.9 7.2 69 2.6 SE 32 48 17 26 1017.5 1017.5 1.6
01/02:59am 12.5 6.1 7.1 69 2.6 SE 30 48 16 26 1017.6 1017.6 1.6
01/02:30am 12.7 6.8 7.3 69 2.6 SE 28 44 15 24 1017.2 1017.2 1.6
01/02:21am 12.6 6.3 7.5 71 2.5 SE 30 48 16 26 1017.2 1017.2 1.6
01/02:00am 12.8 6.5 7.5 70 2.6 SE 30 43 16 23 1017.1 1017.1 1.6
01/01:37am 12.8 6.9 7.7 71 2.5 SE 28 46 15 25 1017.1 1017.1 1.6
01/01:30am 12.8 6.6 7.7 71 2.5 SE 30 46 16 25 1017.0 1017.0 1.6
01/01:02am 12.8 6.6 7.7 71 2.5 SE 30 48 16 26 1016.7 1016.7 1.6
01/01:00am 12.8 6.2 7.9 72 2.4 SE 32 48 17 26 1016.7 1016.7 1.6
01/12:31am 13.2 7.6 8.6 73 2.3 SE 28 48 15 26 1016.1 1016.1 1.6
01/12:30am 13.2 7.9 8.6 73 2.3 SE 26 43 14 23 1016.1 1016.1 1.6
01/12:00am 13.3 7.1 9.2 76 2.1 SE 32 46 17 25 1015.7 1015.7 1.6
 
Date/Time
WST
Temp
°C
App
Temp
°C
Dew
Point
Rel
Hum
%
Delta-T
°C
Wind Press
QNH
hPa
Press
MSL
hPa
Rain
since 9 am
mm
Dir
 
Spd
km/h
Gust
km/h
Spd
kts
Gust
kts
31/11:30pm 13.7 7.2 9.0 73 2.4 SE 33 50 18 27 1015.2 1015.2 1.6
31/11:25pm 13.7 7.4 9.0 73 2.4 SE 32 50 17 27 1015.0 1015.0 1.6
31/11:00pm 13.7 9.1 9.8 77 2.0 SE 24 33 13 18 1015.1 1015.1 1.6
31/10:30pm 14.0 9.5 9.9 76 2.1 SE 24 35 13 19 1014.8 1014.8 1.6
31/10:00pm 14.4 9.9 10.2 76 2.2 SE 24 35 13 19 1014.5 1014.5 1.6
31/09:30pm 14.5 10.7 11.1 80 1.8 SE 22 30 12 16 1014.3 1014.3 1.6
31/09:00pm 14.6 11.9 11.6 82 1.6 SE 17 28 9 15 1014.0 1014.0 1.6
31/08:30pm 14.6 12.9 12.6 88 1.1 SSE 13 15 7 8 1013.7 1013.7 1.6
31/08:00pm 14.8 13.5 12.4 85 1.3 SW 11 13 6 7 1013.2 1013.2 1.6
31/07:30pm 15.5 14.5 12.2 81 1.8 SW 9 13 5 7 1012.9 1012.9 1.6
31/07:00pm 15.2 14.2 12.3 83 1.6 SSW 9 11 5 6 1012.7 1012.7 1.6
31/06:30pm 15.4 14.9 12.7 84 1.5 SSE 7 9 4 5 1012.3 1012.3 1.6
31/06:00pm 15.4 14.9 12.5 83 1.6 ESE 7 9 4 5 1011.6 1011.6 1.6
31/05:30pm 16.9 15.1 12.0 73 2.7 SW 13 17 7 9 1011.3 1011.3 1.6
31/05:00pm 18.1 16.4 12.3 69 3.2 SW 13 19 7 10 1011.3 1011.3 1.6
31/04:30pm 19.5 16.2 11.7 60 4.3 SW 20 26 11 14 1011.1 1011.1 1.6
31/04:00pm 20.3 16.8 10.3 52 5.4 SW 19 22 10 12 1011.0 1011.0 1.6
31/03:30pm 20.9 18.4 10.9 52 5.5 WSW 15 19 8 10 1011.0 1011.0 1.6
31/03:00pm 21.0 19.7 12.5 58 4.8 WSW 11 15 6 8 1011.2 1011.2 1.6
31/02:30pm 21.1 20.0 12.0 56 5.1 W 9 15 5 8 1010.8 1010.8 1.6
31/02:00pm 21.0 18.5 11.2 53 5.4 WSW 15 20 8 11 1011.0 1011.0 1.6
31/01:30pm 20.9 19.4 13.0 60 4.5 SW 13 19 7 10 1011.2 1011.2 1.6
31/01:00pm 20.4 19.0 15.5 73 2.9 WSW 17 22 9 12 1012.2 1012.2 1.6
31/12:30pm 19.7 18.8 14.9 74 2.8 SW 13 19 7 10 1012.0 1012.0 1.6
31/12:00pm 19.6 19.9 15.9 79 2.2 SSW 9 13 5 7 1012.1 1012.1 1.6
31/11:34am 19.0 20.3 17.0 88 1.2 SSW 6 7 3 4 1012.3 1012.3 1.6
31/11:30am 18.7 20.0 17.0 90 1.0 SSW 6 7 3 4 1012.3 1012.3 1.6
31/11:08am 18.2 19.3 16.5 90 1.0 WNW 6 9 3 5 1012.8 1012.8 1.6
31/11:00am 18.1 19.1 16.8 92 0.8 N 7 11 4 6 1012.9 1012.9 1.6
31/10:40am 18.0 18.6 16.8 93 0.7 NNE 9 19 5 10 1013.3 1013.3 1.6
31/10:30am 17.7 17.2 16.9 95 0.5 NNE 15 24 8 13 1013.4 1013.4 1.4
31/10:23am 17.6 17.1 16.9 96 0.4 NNE 15 19 8 10 1013.5 1013.5 1.4
31/10:00am 17.7 17.2 16.9 95 0.5 N 15 17 8 9 1013.7 1013.7 0.8
31/09:30am 17.4 18.5 16.6 95 0.5 NNE 6 9 3 5 1013.3 1013.3 0.4
31/09:00am 17.4 17.5 16.4 94 0.6 N 11 15 6 8 1014.0 1014.0 24.4
31/08:30am 17.0 15.8 16.2 95 0.5 N 17 22 9 12 1013.9 1013.9 24.4
31/08:00am 16.6 17.3 16.1 97 0.3 N 7 11 4 6 1013.1 1013.1 24.4
31/07:30am 16.3 16.2 16.0 98 0.2 NNE 11 13 6 7 1012.8 1012.8 24.4
31/07:00am 16.7 16.2 15.8 94 0.5 N 13 22 7 12 1012.8 1012.8 24.2
31/06:30am 16.5 16.0 15.8 96 0.4 N 13 17 7 9 1012.7 1012.7 24.2
31/06:00am 16.8 15.5 15.8 94 0.6 N 17 20 9 11 1012.0 1012.0 24.2
31/05:43am 16.7 15.4 15.7 94 0.6 NW 17 24 9 13 1013.0 1013.0 24.0
31/05:30am 16.5 16.0 15.8 96 0.4 NW 13 19 7 10 1013.0 1013.0 23.8
31/05:00am 16.1 15.9 15.8 98 0.2 NNW 11 15 6 8 1012.7 1012.7 12.2
31/04:40am 16.3 15.7 15.6 96 0.4 N 13 19 7 10 1012.5 1012.5 6.6
31/04:30am 16.4 15.3 15.4 94 0.6 NNE 15 20 8 11 1012.5 1012.5 4.0
31/04:00am 16.3 14.8 15.3 94 0.6 N 17 22 9 12 1012.9 1012.9 3.6
31/03:30am 16.4 14.3 15.2 93 0.7 NNE 20 24 11 13 1013.2 1013.2 3.0
31/03:00am 16.4 14.9 15.2 93 0.7 N 17 20 9 11 1013.5 1013.5 2.8
31/02:30am 16.3 14.4 15.3 94 0.6 NNE 19 22 10 12 1014.0 1014.0 2.8
31/02:00am 16.5 15.7 15.1 91 0.8 NNE 13 17 7 9 1014.4 1014.4 2.8
31/01:30am 16.1 16.1 15.1 94 0.6 NE 9 15 5 8 1014.5 1014.5 2.8
31/01:00am 16.1 14.2 15.1 94 0.6 NNE 19 24 10 13 1015.2 1015.2 2.8
31/12:30am 16.1 13.6 15.1 94 0.6 NNE 22 30 12 16 1015.5 1015.5 2.8
31/12:00am 16.0 13.9 14.8 93 0.7 N 19 24 10 13 1015.9 1015.9 2.8
 
Date/Time
WST
Temp
°C
App
Temp
°C
Dew
Point
Rel
Hum
%
Delta-T
°C
Wind Press
QNH
hPa
Press
MSL
hPa
Rain
since 9 am
mm
Dir
 
Spd
km/h
Gust
km/h
Spd
kts
Gust
kts
30/11:30pm 16.0 13.8 14.8 93 0.7 NNE 20 28 11 15 1016.0 1016.0 2.8
30/11:00pm 16.1 11.6 14.9 93 0.7 NNE 32 39 17 21 1016.0 1016.0 2.6
30/10:30pm 16.2 11.6 15.0 93 0.7 NNE 33 46 18 25 1015.8 1015.8 2.4
30/10:00pm 16.3 11.7 15.1 93 0.7 N 33 44 18 24 1016.7 1016.7 2.0
30/09:30pm 16.3 13.7 14.9 91 0.8 N 22 30 12 16 1017.4 1017.4 2.0
30/09:00pm 16.8 13.5 14.9 88 1.1 N 26 33 14 18 1017.9 1017.9 1.0
30/08:30pm 16.9 11.9 15.0 88 1.1 N 35 59 19 32 1017.5 1017.5 0.8
30/08:19pm 16.9 11.5 15.0 88 1.1 N 37 57 20 31 1016.8 1016.8 0.8
30/08:00pm 17.0 12.5 15.3 90 1.0 N 33 48 18 26 1016.5 1016.5 0.6
30/07:30pm 17.1 11.8 15.4 90 1.0 N 37 50 20 27 1015.0 1015.0 0.4
30/07:04pm 17.3 9.9 15.2 87 1.2 NNE 48 67 26 36 1013.8 1013.8 0.4
30/07:00pm 17.3 10.3 15.2 87 1.2 NNE 46 67 25 36 1013.5 1013.5 0.4
30/06:55pm 17.4 12.5 15.2 87 1.3 N 35 54 19 29 1014.5 1014.5 0.2
30/06:44pm 18.1 14.3 14.8 81 1.9 N 28 46 15 25 1016.8 1016.8 0.0
30/06:30pm 18.2 15.8 14.4 78 2.2 N 20 30 11 16 1017.5 1017.5 0.0
30/06:00pm 18.1 14.8 14.1 77 2.3 N 24 32 13 17 1017.1 1017.1 0.0
30/05:30pm 18.0 14.8 14.2 78 2.2 NNE 24 32 13 17 1016.3 1016.3 0.0
30/05:00pm 18.5 16.1 14.3 76 2.4 N 20 28 11 15 1017.3 1017.3 0.0
30/04:30pm 18.6 16.7 15.2 80 2.0 NNE 19 24 10 13 1017.0 1017.0 0.0
30/04:00pm 19.0 17.5 15.3 79 2.2 NNE 17 24 9 13 1017.2 1017.2 0.0
30/03:30pm 19.1 17.8 15.7 80 2.0 NNE 17 22 9 12 1016.9 1016.9 0.0
30/03:00pm 19.4 18.1 15.9 80 2.1 N 17 20 9 11 1017.2 1017.2 0.0
30/02:30pm 19.7 18.3 15.5 77 2.5 N 17 24 9 13 1017.7 1017.7 0.0
30/02:00pm 19.9 17.9 15.5 76 2.6 N 20 28 11 15 1017.4 1017.4 0.0
30/01:30pm 19.8 18.4 16.5 81 2.0 N 19 26 10 14 1017.8 1017.8 0.0
30/01:00pm 19.4 17.8 16.6 84 1.7 NNE 20 30 11 16 1018.4 1018.4 0.0
30/12:30pm 19.0 17.6 17.0 88 1.2 NNE 20 26 11 14 1018.9 1018.9 0.0
30/12:00pm 18.6 18.2 17.1 91 0.9 NNE 15 20 8 11 1019.6 1019.6 0.0
30/11:30am 18.7 18.1 16.7 88 1.2 NNE 15 20 8 11 1020.3 1020.3 0.0
30/11:00am 18.3 18.6 17.0 92 0.8 NE 11 17 6 9 1020.3 1020.3 0.0
30/10:30am 18.2 19.2 16.9 92 0.8 NE 7 11 4 6 1020.4 1020.4 0.0
30/10:00am 17.4 17.5 16.6 95 0.5 ENE 11 13 6 7 1020.3 1020.3 0.0
30/09:30am 16.9 17.3 16.2 96 0.4 ENE 9 11 5 6 1020.5 1020.5 0.0
30/09:00am 16.6 17.2 15.9 96 0.4 ENE 7 9 4 5 1020.7 1020.7 4.2
30/08:30am 16.2 16.3 15.5 96 0.4 E 9 11 5 6 1020.1 1020.1 4.2
30/08:00am 15.7 15.8 15.4 98 0.2 E 9 13 5 7 1019.9 1019.9 4.2
30/07:30am 15.1 15.0 14.9 99 0.1 E 9 11 5 6 1019.7 1019.7 4.2
30/07:00am 15.0 15.3 14.6 97 0.2 NE 6 7 3 4 1019.8 1019.8 4.2
30/06:30am 15.1 15.0 14.9 99 0.1 ENE 9 9 5 5 1019.5 1019.5 4.2
30/06:06am 14.9 15.0 14.5 97 0.2 ENE 7 9 4 5 1019.4 1019.4 4.2
30/06:00am 14.7 15.0 14.5 99 0.1 ENE 6 7 3 4 1019.5 1019.5 4.2
30/05:46am 14.6 16.1 14.6 100 0.0 CALM 0 7 0 4 1019.6 1019.6 4.2
30/05:30am 14.7 16.1 14.5 99 0.1 CALM 0 0 0 0 1019.7 1019.7 4.2
30/05:00am 15.0 15.2 14.8 99 0.1 ENE 7 9 4 5 1019.4 1019.4 4.2
30/04:49am 14.9 15.2 14.9 100 0.0 ENE 7 9 4 5 1019.4 1019.4 4.2
30/04:30am 14.5 14.2 14.3 99 0.1 NE 9 9 5 5 1019.4 1019.4 4.2
30/04:00am 14.8 15.2 14.8 100 0.0 NE 6 7 3 4 1019.9 1019.9 4.0
30/03:44am 14.5 14.5 14.3 99 0.1 NE 7 7 4 4 1020.1 1020.1 4.0
30/03:31am 14.5 14.8 14.5 100 0.0 NE 6 7 3 4 1020.0 1020.0 4.0
30/03:30am 14.6 14.9 14.4 99 0.1 NE 6 7 3 4 1020.0 1020.0 4.0
30/03:08am 14.6 14.7 14.4 99 0.1 NE 7 7 4 4 1019.9 1019.9 4.0
30/03:00am 14.8 15.0 14.6 99 0.1 NE 7 9 4 5 1019.9 1019.9 4.0
30/02:58am 14.8 15.0 14.6 99 0.1 NNE 7 9 4 5 1019.9 1019.9 4.0
30/02:30am 14.6 16.1 14.6 100 0.0 CALM 0 0 0 0 1020.1 1020.1 4.0
30/02:00am 14.5 14.6 14.5 100 0.0 NE 7 9 4 5 1020.2 1020.2 4.0
30/01:43am 13.9 13.4 13.7 99 0.1 NE 9 11 5 6 1020.2 1020.2 4.0
30/01:36am 13.7 13.1 13.5 99 0.1 NE 9 11 5 6 1020.1 1020.1 4.0
30/01:30am 13.8 13.3 13.8 100 0.0 E 9 11 5 6 1020.1 1020.1 4.0
30/01:16am 14.4 14.5 14.0 97 0.2 SE 6 11 3 6 1019.9 1019.9 4.0
30/01:02am 14.5 15.9 14.5 100 0.0 CALM 0 0 0 0 1020.0 1020.0 4.0
30/01:00am 14.6 16.1 14.6 100 0.0 CALM 0 6 0 3 1020.1 1020.1 4.0
30/12:53am 15.0 15.4 14.8 99 0.1 W 6 9 3 5 1020.3 1020.3 4.0
30/12:39am 15.0 15.4 14.8 99 0.1 SE 6 7 3 4 1020.2 1020.2 4.0
30/12:30am 14.6 16.1 14.6 100 0.0 CALM 0 0 0 0 1020.2 1020.2 4.0
30/12:21am 15.0 16.6 14.8 99 0.1 CALM 0 0 0 0 1020.2 1020.2 4.0
30/12:00am 15.2 15.1 14.9 98 0.2 ENE 9 9 5 5 1020.1 1020.1 4.0
 
Date/Time
WST
Temp
°C
App
Temp
°C
Dew
Point
Rel
Hum
%
Delta-T
°C
Wind Press
QNH
hPa
Press
MSL
hPa
Rain
since 9 am
mm
Dir
 
Spd
km/h
Gust
km/h
Spd
kts
Gust
kts
29/11:30pm 15.6 16.2 15.3 98 0.2 W 6 7 3 4 1020.0 1020.0 4.0
29/11:00pm 16.1 18.0 15.8 98 0.2 CALM 0 4 0 2 1020.5 1020.5 4.0
29/10:51pm 16.1 17.3 15.9 99 0.1 W 4 6 2 3 1020.5 1020.5 4.0
29/10:33pm 16.1 16.7 15.9 99 0.1 W 7 9 4 5 1020.5 1020.5 3.8
29/10:30pm 16.1 16.7 15.9 99 0.1 W 7 9 4 5 1020.5 1020.5 3.8
29/10:02pm 16.3 16.2 16.1 99 0.1 S 11 17 6 9 1020.2 1020.2 3.6
29/10:00pm 16.3 16.2 16.0 98 0.2 S 11 17 6 9 1020.1 1020.1 3.6
29/09:42pm 15.9 15.7 15.7 99 0.1 NW 11 24 6 13 1020.2 1020.2 2.6
29/09:30pm 15.2 15.7 14.9 98 0.2 ENE 6 7 3 4 1020.1 1020.1 0.0
29/09:00pm 14.9 14.6 14.5 97 0.2 NE 9 9 5 5 1019.9 1019.9 0.0
29/08:30pm 14.6 15.9 14.1 97 0.3 CALM 0 0 0 0 1020.2 1020.2 0.0
29/08:00pm 14.4 15.6 13.9 97 0.3 CALM 0 0 0 0 1020.1 1020.1 0.0
29/07:30pm 14.6 14.8 14.1 97 0.3 NE 6 6 3 3 1019.6 1019.6 0.0
29/07:00pm 15.2 16.3 14.5 96 0.4 N 2 7 1 4 1019.3 1019.3 0.0
29/06:30pm 15.8 16.1 14.9 94 0.5 N 7 9 4 5 1019.2 1019.2 0.0
29/06:00pm 17.3 17.9 15.9 91 0.8 NNW 7 7 4 4 1018.8 1018.8 0.0
29/05:30pm 17.8 18.1 16.1 90 1.0 NNW 9 13 5 7 1018.5 1018.5 0.0
29/05:00pm 18.5 18.9 16.3 87 1.3 NW 9 13 5 7 1018.3 1018.3 0.0
29/04:30pm 18.9 18.5 16.2 84 1.6 NW 13 17 7 9 1018.3 1018.3 0.0
29/04:00pm 19.0 18.2 16.1 83 1.7 NW 15 22 8 12 1018.4 1018.4 0.0

Other Formats:

Comma delimited format used in spreadsheet applications
http://www.bom.gov.au/fwo/IDW60801/IDW60801.94609.axf

JavaScript Object Notation format (JSON) in row-major order
http://www.bom.gov.au/fwo/IDW60801/IDW60801.94609.json